createdAt,value
2023-05-21T00:00:36.600Z,18.20
2023-05-21T00:01:36.566Z,18.80
2023-05-21T00:02:36.632Z,19.10
2023-05-21T00:03:36.638Z,19.20
2023-05-21T00:04:36.532Z,18.50
2023-05-21T00:05:36.741Z,17.50
2023-05-21T00:06:36.615Z,17.30
2023-05-21T00:07:36.498Z,18.70
2023-05-21T00:08:36.496Z,20.80
2023-05-21T00:09:36.514Z,16.90
2023-05-21T00:10:36.492Z,19.00
2023-05-21T00:11:36.463Z,17.50
2023-05-21T00:12:36.452Z,19.50
2023-05-21T00:13:36.435Z,17.00
2023-05-21T00:14:36.449Z,19.40
2023-05-21T00:15:36.624Z,20.20
2023-05-21T00:16:36.485Z,19.80
2023-05-21T00:17:36.420Z,19.20
2023-05-21T00:18:36.391Z,18.70
2023-05-21T00:19:36.402Z,18.70
2023-05-21T00:20:36.373Z,20.90
2023-05-21T00:21:36.362Z,19.00
2023-05-21T00:22:36.404Z,23.10
2023-05-21T00:23:36.363Z,19.60
2023-05-21T00:24:36.356Z,19.20
2023-05-21T00:25:36.493Z,17.60
2023-05-21T00:26:36.316Z,18.10
2023-05-21T00:27:36.297Z,19.70
2023-05-21T00:28:36.308Z,17.30
2023-05-21T00:29:36.283Z,20.70
2023-05-21T00:30:36.271Z,20.50
2023-05-21T00:31:36.279Z,17.60
2023-05-21T00:32:36.267Z,19.20
2023-05-21T00:33:36.264Z,20.00
2023-05-21T00:34:36.232Z,18.50
2023-05-21T00:35:36.371Z,20.10
2023-05-21T00:36:36.220Z,17.30
2023-05-21T00:37:36.233Z,18.00
2023-05-21T00:38:36.228Z,19.10
2023-05-21T00:39:36.178Z,20.70
2023-05-21T00:40:36.182Z,19.80
2023-05-21T00:41:36.173Z,20.40
2023-05-21T00:42:36.198Z,20.30
2023-05-21T00:43:36.145Z,19.70
2023-05-21T00:44:36.131Z,21.20
2023-05-21T00:45:36.324Z,18.10
2023-05-21T00:46:36.123Z,19.10
2023-05-21T00:47:36.176Z,20.20
2023-05-21T00:48:36.101Z,19.40
2023-05-21T00:49:36.081Z,18.70
2023-05-21T00:50:36.073Z,18.40
2023-05-21T00:51:36.090Z,18.80
2023-05-21T00:52:36.063Z,19.30
2023-05-21T00:53:36.042Z,18.90
2023-05-21T00:54:36.034Z,20.40
2023-05-21T00:55:36.209Z,20.70
2023-05-21T00:56:36.035Z,20.10
2023-05-21T00:57:35.998Z,20.50
2023-05-21T00:58:35.997Z,21.20
2023-05-21T00:59:35.988Z,21.20
2023-05-21T01:00:35.976Z,21.30
2023-05-21T01:01:35.992Z,23.40
2023-05-21T01:02:36.037Z,19.80
2023-05-21T01:03:35.979Z,19.50
2023-05-21T01:04:35.932Z,19.80
2023-05-21T01:05:36.065Z,20.50
2023-05-21T01:06:35.927Z,18.70
2023-05-21T01:07:35.906Z,20.00
2023-05-21T01:08:36.884Z,22.20
2023-05-21T01:09:35.879Z,22.10
2023-05-21T01:10:35.902Z,22.00
2023-05-21T01:11:35.898Z,20.90
2023-05-21T01:12:35.846Z,22.40
2023-05-21T01:13:35.861Z,19.30
2023-05-21T01:14:35.831Z,19.50
2023-05-21T01:15:35.997Z,22.80
2023-05-21T01:16:35.849Z,21.70
2023-05-21T01:17:35.867Z,19.90
2023-05-21T01:18:35.820Z,19.50
2023-05-21T01:19:35.881Z,21.00
2023-05-21T01:20:35.781Z,20.70
2023-05-21T01:21:35.760Z,20.20
2023-05-21T01:22:35.751Z,23.60
2023-05-21T01:23:35.750Z,20.70
2023-05-21T01:24:35.783Z,19.80
2023-05-21T01:25:35.978Z,21.40
2023-05-21T01:26:35.695Z,20.80
2023-05-21T01:27:35.694Z,23.30
2023-05-21T01:28:35.681Z,22.60
2023-05-21T01:29:35.696Z,20.90
2023-05-21T01:30:35.661Z,21.20
2023-05-21T01:31:35.649Z,24.50
2023-05-21T01:32:35.706Z,21.00
2023-05-21T01:33:35.709Z,22.20
2023-05-21T01:34:35.864Z,22.70
2023-05-21T01:35:35.888Z,21.00
2023-05-21T01:36:35.602Z,22.50
2023-05-21T01:37:35.607Z,21.00
2023-05-21T01:38:35.597Z,23.40
2023-05-21T01:39:35.609Z,22.10
2023-05-21T01:40:35.600Z,21.80
2023-05-21T01:41:35.564Z,21.00
2023-05-21T01:42:35.541Z,21.70
2023-05-21T01:43:35.699Z,21.30
2023-05-21T01:44:35.533Z,24.30
2023-05-21T01:45:35.765Z,21.00
2023-05-21T01:46:35.562Z,22.40
2023-05-21T01:47:35.521Z,20.20
2023-05-21T01:48:35.520Z,22.60
2023-05-21T01:49:35.487Z,21.40
2023-05-21T01:50:35.488Z,22.50
2023-05-21T01:51:35.464Z,23.80
2023-05-21T01:52:35.457Z,24.50
2023-05-21T01:53:35.450Z,23.60
2023-05-21T01:54:35.429Z,20.10
2023-05-21T01:55:35.517Z,21.60
2023-05-21T01:56:35.454Z,23.20
2023-05-21T01:57:35.428Z,20.60
2023-05-21T01:58:35.398Z,21.80
2023-05-21T01:59:35.384Z,24.70
2023-05-21T02:00:35.361Z,24.50
2023-05-21T02:01:35.403Z,24.50
2023-05-21T02:02:35.428Z,24.00
2023-05-21T02:03:35.397Z,22.90
2023-05-21T02:04:35.354Z,23.10
2023-05-21T02:05:35.748Z,23.20
2023-05-21T02:06:35.329Z,23.40
2023-05-21T02:07:35.314Z,24.40
2023-05-21T02:08:35.336Z,22.70
2023-05-21T02:09:35.298Z,21.30
2023-05-21T02:10:35.262Z,24.80
2023-05-21T02:11:35.291Z,23.90
2023-05-21T02:12:35.242Z,23.00
2023-05-21T02:13:35.234Z,23.10
2023-05-21T02:14:35.229Z,23.50
2023-05-21T02:15:35.664Z,26.70
2023-05-21T02:16:35.270Z,23.70
2023-05-21T02:17:35.206Z,26.30
2023-05-21T02:18:35.181Z,24.10
2023-05-21T02:19:35.285Z,26.10
2023-05-21T02:20:35.180Z,24.60
2023-05-21T02:21:35.156Z,26.50
2023-05-21T02:22:35.197Z,25.70
2023-05-21T02:23:35.156Z,24.00
2023-05-21T02:24:35.123Z,27.30
2023-05-21T02:25:35.295Z,25.40
2023-05-21T02:26:35.103Z,25.70
2023-05-21T02:27:35.129Z,23.00
2023-05-21T02:28:35.088Z,23.10
2023-05-21T02:29:35.079Z,25.00
2023-05-21T02:30:35.070Z,24.70
2023-05-21T02:31:35.057Z,22.50
2023-05-21T02:32:35.155Z,25.20
2023-05-21T02:33:38.266Z,27.80
2023-05-21T02:35:07.004Z,24.50
2023-05-21T02:35:35.319Z,24.90
2023-05-21T02:36:35.014Z,26.70
2023-05-21T02:37:35.076Z,27.20
2023-05-21T02:38:34.991Z,23.40
2023-05-21T02:39:34.992Z,27.10
2023-05-21T02:40:34.982Z,24.60
2023-05-21T02:41:34.959Z,26.30
2023-05-21T02:42:34.947Z,25.40
2023-05-21T02:43:34.947Z,25.60
2023-05-21T02:44:34.965Z,27.10
2023-05-21T02:45:35.286Z,26.90
2023-05-21T02:46:34.928Z,29.60
2023-05-21T02:47:34.953Z,24.80
2023-05-21T02:48:34.907Z,26.60
2023-05-21T02:49:34.877Z,27.50
2023-05-21T02:50:34.871Z,24.80
2023-05-21T02:51:34.895Z,25.00
2023-05-21T02:52:35.845Z,24.50
2023-05-21T02:53:34.857Z,30.80
2023-05-21T02:54:34.831Z,29.50
2023-05-21T02:55:35.204Z,26.20
2023-05-21T02:56:34.816Z,29.90
2023-05-21T02:57:34.784Z,26.10
2023-05-21T02:58:34.785Z,26.90
2023-05-21T02:59:34.769Z,26.30
2023-05-21T03:00:34.822Z,25.70
2023-05-21T03:01:34.792Z,27.40
2023-05-21T03:02:34.841Z,27.60
2023-05-21T03:03:34.888Z,28.90
2023-05-21T03:04:34.723Z,26.20
2023-05-21T03:05:34.803Z,28.00
2023-05-21T03:06:34.705Z,29.20
2023-05-21T03:07:34.731Z,27.70
2023-05-21T03:08:34.681Z,27.80
2023-05-21T03:09:34.685Z,28.40
2023-05-21T03:10:34.663Z,28.70
2023-05-21T03:11:34.649Z,28.60
2023-05-21T03:12:34.672Z,27.80
2023-05-21T03:13:34.732Z,30.50
2023-05-21T03:14:34.624Z,28.00
2023-05-21T03:15:34.726Z,28.20
2023-05-21T03:16:34.797Z,28.20
2023-05-21T03:17:34.672Z,26.40
2023-05-21T03:18:34.583Z,29.90
2023-05-21T03:19:34.588Z,30.40
2023-05-21T03:20:34.572Z,30.70
2023-05-21T03:21:34.574Z,26.70
2023-05-21T03:22:34.541Z,26.50
2023-05-21T03:23:34.527Z,29.40
2023-05-21T03:24:34.513Z,29.60
2023-05-21T03:25:34.725Z,27.50
2023-05-21T03:26:35.515Z,28.30
2023-05-21T03:27:34.502Z,28.70
2023-05-21T03:28:34.478Z,28.10
2023-05-21T03:29:34.467Z,29.60
2023-05-21T03:30:34.490Z,29.10
2023-05-21T03:31:34.515Z,28.80
2023-05-21T03:32:34.468Z,29.50
2023-05-21T03:33:34.437Z,29.50
2023-05-21T03:34:34.506Z,28.00
2023-05-21T03:35:34.711Z,28.20
2023-05-21T03:36:34.409Z,26.60
2023-05-21T03:37:34.395Z,29.50
2023-05-21T03:38:36.526Z,28.50
2023-05-21T03:39:34.365Z,28.10
2023-05-21T03:40:34.378Z,29.90
2023-05-21T03:41:34.360Z,27.90
2023-05-21T03:42:34.372Z,30.40
2023-05-21T03:43:34.358Z,31.50
2023-05-21T03:44:34.365Z,30.50
2023-05-21T03:45:34.476Z,29.40
2023-05-21T03:46:34.364Z,29.00
2023-05-21T03:47:34.309Z,36.70
2023-05-21T03:48:34.279Z,29.50
2023-05-21T03:49:34.291Z,32.20
2023-05-21T03:50:34.263Z,30.70
2023-05-21T03:51:34.247Z,32.30
2023-05-21T03:52:34.239Z,31.90
2023-05-21T03:53:34.250Z,28.10
2023-05-21T03:54:34.238Z,30.00
2023-05-21T03:55:34.316Z,28.40
2023-05-21T03:56:34.201Z,29.70
2023-05-21T03:57:34.218Z,32.10
2023-05-21T03:58:35.194Z,31.60
2023-05-21T03:59:34.173Z,29.50
2023-05-21T04:00:34.159Z,30.20
2023-05-21T04:01:34.163Z,33.60
2023-05-21T04:02:34.233Z,31.40
2023-05-21T04:03:34.239Z,30.40
2023-05-21T04:04:34.148Z,30.80
2023-05-21T04:05:34.287Z,32.10
2023-05-21T04:06:34.108Z,32.00
2023-05-21T04:07:34.149Z,31.70
2023-05-21T04:08:34.104Z,30.20
2023-05-21T04:09:36.002Z,30.20
2023-05-21T04:10:34.063Z,30.30
2023-05-21T04:11:34.049Z,32.50
2023-05-21T04:12:34.064Z,29.40
2023-05-21T04:13:34.041Z,29.30
2023-05-21T04:14:34.034Z,29.00
2023-05-21T04:15:34.186Z,33.20
2023-05-21T04:16:34.105Z,30.00
2023-05-21T04:17:34.056Z,29.80
2023-05-21T04:18:33.985Z,31.20
2023-05-21T04:19:34.018Z,32.00
2023-05-21T04:20:33.994Z,31.40
2023-05-21T04:21:33.982Z,31.20
2023-05-21T04:22:33.959Z,30.90
2023-05-21T04:23:33.931Z,30.70
2023-05-21T04:24:33.931Z,31.50
2023-05-21T04:25:34.218Z,28.20
2023-05-21T04:26:33.940Z,32.90
2023-05-21T04:27:33.899Z,32.10
2023-05-21T04:28:33.892Z,30.40
2023-05-21T04:29:33.875Z,28.90
2023-05-21T04:30:33.884Z,30.50
2023-05-21T04:31:33.884Z,27.90
2023-05-21T04:32:33.872Z,29.20
2023-05-21T04:33:33.835Z,32.20
2023-05-21T04:34:33.820Z,31.40
2023-05-21T04:35:33.958Z,32.30
2023-05-21T04:36:33.826Z,29.70
2023-05-21T04:37:33.809Z,29.70
2023-05-21T04:38:33.786Z,31.80
2023-05-21T04:39:33.795Z,30.40
2023-05-21T04:40:33.808Z,30.40
2023-05-21T04:41:33.780Z,28.60
2023-05-21T04:42:33.746Z,31.30
2023-05-21T04:43:33.728Z,32.20
2023-05-21T04:44:33.739Z,31.40
2023-05-21T04:45:34.022Z,33.80
2023-05-21T04:46:33.794Z,31.20
2023-05-21T04:47:33.777Z,32.40
2023-05-21T04:48:33.700Z,30.80
2023-05-21T04:49:33.705Z,32.00
2023-05-21T04:50:33.684Z,34.20
2023-05-21T04:51:33.667Z,31.60
2023-05-21T04:52:33.645Z,30.00
2023-05-21T04:53:33.634Z,30.10
2023-05-21T04:54:33.644Z,33.20
2023-05-21T04:55:33.642Z,31.10
2023-05-21T04:56:33.607Z,30.80
2023-05-21T04:57:33.595Z,31.00
2023-05-21T04:58:33.592Z,31.20
2023-05-21T04:59:33.591Z,32.00
2023-05-21T05:00:33.627Z,31.20
2023-05-21T05:01:33.553Z,30.60
2023-05-21T05:02:33.610Z,30.50
2023-05-21T05:03:33.604Z,29.20
2023-05-21T05:04:33.545Z,33.40
2023-05-21T05:05:33.523Z,32.60
2023-05-21T05:06:33.510Z,31.80
2023-05-21T05:07:33.493Z,31.40
2023-05-21T05:08:33.516Z,32.40
2023-05-21T05:09:33.480Z,31.20
2023-05-21T05:10:33.475Z,33.40
2023-05-21T05:11:33.453Z,31.80
2023-05-21T05:12:33.455Z,32.10
2023-05-21T05:13:33.462Z,31.00
2023-05-21T05:14:33.434Z,31.70
2023-05-21T05:15:33.457Z,32.60
2023-05-21T05:16:33.429Z,30.00
2023-05-21T05:17:33.416Z,29.70
2023-05-21T05:18:33.405Z,30.70
2023-05-21T05:19:33.455Z,29.40
2023-05-21T05:20:33.360Z,32.60
2023-05-21T05:21:33.348Z,31.30
2023-05-21T05:22:33.361Z,32.40
2023-05-21T05:23:33.358Z,30.00
2023-05-21T05:24:33.344Z,30.10
2023-05-21T05:25:33.326Z,33.60
2023-05-21T05:26:33.309Z,33.10
2023-05-21T05:27:33.324Z,35.90
2023-05-21T05:28:33.287Z,30.70
2023-05-21T05:29:33.275Z,32.30
2023-05-21T05:30:33.290Z,32.60
2023-05-21T05:31:33.389Z,30.70
2023-05-21T05:32:33.297Z,29.30
2023-05-21T05:33:33.236Z,30.70
2023-05-21T05:34:33.220Z,31.10
2023-05-21T05:35:33.219Z,31.10
2023-05-21T05:36:33.236Z,31.50
2023-05-21T05:37:33.233Z,31.40
2023-05-21T05:38:33.177Z,30.70
2023-05-21T05:39:33.200Z,30.10
2023-05-21T05:40:33.207Z,29.60
2023-05-21T05:41:33.178Z,29.30
2023-05-21T05:42:33.146Z,30.10
2023-05-21T05:43:33.137Z,31.30
2023-05-21T05:44:33.129Z,33.50
2023-05-21T05:45:33.129Z,29.90
2023-05-21T05:46:33.173Z,32.10
2023-05-21T05:47:33.108Z,27.50
2023-05-21T05:48:33.092Z,31.00
2023-05-21T05:49:33.071Z,32.80
2023-05-21T05:50:33.080Z,31.50
2023-05-21T05:51:33.050Z,30.70
2023-05-21T05:52:33.060Z,29.80
2023-05-21T05:53:33.065Z,30.00
2023-05-21T05:54:33.022Z,33.40
2023-05-21T05:55:33.039Z,29.40
2023-05-21T05:56:33.033Z,30.20
2023-05-21T05:57:33.017Z,29.50
2023-05-21T05:58:32.986Z,30.20
2023-05-21T05:59:32.986Z,29.20
2023-05-21T06:00:32.975Z,29.50
2023-05-21T06:01:32.958Z,27.70
2023-05-21T06:02:33.138Z,34.10
2023-05-21T06:03:33.073Z,30.70
2023-05-21T06:04:32.958Z,28.30
2023-05-21T06:05:32.960Z,30.40
2023-05-21T06:06:32.930Z,31.90
2023-05-21T06:07:32.931Z,26.60
2023-05-21T06:08:32.900Z,29.90
2023-05-21T06:09:32.897Z,30.90
2023-05-21T06:10:32.890Z,28.40
2023-05-21T06:11:32.871Z,30.30
2023-05-21T06:12:32.895Z,28.50
2023-05-21T06:13:32.892Z,30.10
2023-05-21T06:14:32.881Z,29.20
2023-05-21T06:15:32.847Z,29.70
2023-05-21T06:16:32.951Z,30.80
2023-05-21T06:17:32.959Z,30.10
2023-05-21T06:18:32.840Z,30.40
2023-05-21T06:19:32.960Z,32.90
2023-05-21T06:20:32.800Z,28.20
2023-05-21T06:21:32.784Z,28.40
2023-05-21T06:22:32.768Z,32.00
2023-05-21T06:23:32.855Z,28.80
2023-05-21T06:24:32.788Z,30.90
2023-05-21T06:25:32.761Z,31.20
2023-05-21T06:26:32.741Z,30.50
2023-05-21T06:27:32.751Z,29.20
2023-05-21T06:28:32.734Z,31.60
2023-05-21T06:29:32.714Z,30.30
2023-05-21T06:30:32.708Z,28.90
2023-05-21T06:31:32.694Z,32.40
2023-05-21T06:32:32.729Z,31.00
2023-05-21T06:33:32.781Z,29.20
2023-05-21T06:34:32.674Z,27.10
2023-05-21T06:35:32.655Z,30.20
2023-05-21T06:36:32.737Z,28.50
2023-05-21T06:37:32.630Z,27.20
2023-05-21T06:38:32.623Z,31.60
2023-05-21T06:39:32.619Z,27.10
2023-05-21T06:40:32.599Z,31.10
2023-05-21T06:41:32.597Z,33.40
2023-05-21T06:42:32.605Z,27.10
2023-05-21T06:43:32.559Z,29.00
2023-05-21T06:44:32.545Z,32.00
2023-05-21T06:45:32.571Z,29.40
2023-05-21T06:46:32.570Z,30.80
2023-05-21T06:47:32.573Z,30.80
2023-05-21T06:48:32.510Z,30.50
2023-05-21T06:49:32.510Z,29.80
2023-05-21T06:50:32.504Z,30.60
2023-05-21T06:51:32.495Z,30.80
2023-05-21T06:52:32.483Z,29.80
2023-05-21T06:53:32.459Z,30.40
2023-05-21T06:54:32.448Z,27.60
2023-05-21T06:55:32.461Z,30.90
2023-05-21T06:56:32.426Z,26.60
2023-05-21T06:57:32.468Z,29.00
2023-05-21T06:58:32.446Z,27.00
2023-05-21T06:59:32.406Z,30.30
2023-05-21T07:00:32.407Z,30.00
2023-05-21T07:01:32.428Z,29.60
2023-05-21T07:02:32.635Z,29.40
2023-05-21T07:03:32.606Z,29.70
2023-05-21T07:04:32.359Z,29.30
2023-05-21T07:05:32.361Z,27.50
2023-05-21T07:06:32.337Z,31.60
2023-05-21T07:07:32.344Z,31.40
2023-05-21T07:08:33.313Z,31.90
2023-05-21T07:09:32.326Z,28.80
2023-05-21T07:10:32.313Z,31.40
2023-05-21T07:11:32.275Z,32.10
2023-05-21T07:12:32.261Z,30.20
2023-05-21T07:13:32.269Z,28.40
2023-05-21T07:14:32.296Z,29.90
2023-05-21T07:15:32.232Z,29.10
2023-05-21T07:16:32.271Z,31.30
2023-05-21T07:17:32.240Z,30.50
2023-05-21T07:18:32.201Z,32.80
2023-05-21T07:19:32.311Z,32.50
2023-05-21T07:20:32.180Z,31.60
2023-05-21T07:21:32.180Z,30.50
2023-05-21T07:22:32.175Z,33.10
2023-05-21T07:23:32.172Z,29.90
2023-05-21T07:24:32.159Z,29.00
2023-05-21T07:25:32.127Z,28.30
2023-05-21T07:26:32.133Z,30.40
2023-05-21T07:27:32.105Z,31.10
2023-05-21T07:28:32.108Z,30.20
2023-05-21T07:29:32.084Z,33.20
2023-05-21T07:30:32.075Z,31.90
2023-05-21T07:31:32.168Z,28.80
2023-05-21T07:32:32.096Z,28.90
2023-05-21T07:33:32.059Z,28.70
2023-05-21T07:34:32.036Z,31.60
2023-05-21T07:35:32.042Z,26.90
2023-05-21T07:36:32.059Z,29.90
2023-05-21T07:37:32.030Z,34.50
2023-05-21T07:38:32.023Z,29.20
2023-05-21T07:39:31.995Z,30.70
2023-05-21T07:40:31.989Z,33.00
2023-05-21T07:41:31.968Z,27.90
2023-05-21T07:42:31.961Z,31.50
2023-05-21T07:43:32.030Z,30.20
2023-05-21T07:44:31.949Z,29.80
2023-05-21T07:45:31.953Z,32.60
2023-05-21T07:46:31.974Z,28.10
2023-05-21T07:47:31.954Z,29.00
2023-05-21T07:48:33.604Z,29.30
2023-05-21T07:49:31.931Z,31.70
2023-05-21T07:50:31.929Z,31.30
2023-05-21T07:51:31.912Z,29.50
2023-05-21T07:52:31.883Z,31.00
2023-05-21T07:53:31.848Z,29.90
2023-05-21T07:54:31.837Z,29.00
2023-05-21T07:55:31.850Z,31.30
2023-05-21T07:56:31.826Z,28.90
2023-05-21T07:57:31.822Z,29.30
2023-05-21T07:58:31.802Z,29.70
2023-05-21T07:59:31.788Z,33.90
2023-05-21T08:00:31.785Z,28.90
2023-05-21T08:01:31.793Z,30.40
2023-05-21T08:02:31.881Z,29.50
2023-05-21T08:03:31.794Z,30.00
2023-05-21T08:04:31.844Z,25.50
2023-05-21T08:05:31.718Z,27.90
2023-05-21T08:06:31.737Z,29.80
2023-05-21T08:07:31.708Z,28.90
2023-05-21T08:08:31.700Z,30.10
2023-05-21T08:09:31.691Z,30.20
2023-05-21T08:10:31.702Z,32.10
2023-05-21T08:11:31.690Z,28.60
2023-05-21T08:12:31.665Z,29.30
2023-05-21T08:13:31.665Z,27.60
2023-05-21T08:14:31.647Z,29.40
2023-05-21T08:15:31.665Z,30.00
2023-05-21T08:16:31.650Z,27.90
2023-05-21T08:17:31.667Z,29.70
2023-05-21T08:18:31.615Z,27.00
2023-05-21T08:19:31.650Z,27.90
2023-05-21T08:20:31.588Z,30.20
2023-05-21T08:21:31.572Z,30.90
2023-05-21T08:22:31.563Z,27.10
2023-05-21T08:23:31.592Z,29.50
2023-05-21T08:24:31.565Z,29.90
2023-05-21T08:25:31.556Z,27.80
2023-05-21T08:26:31.525Z,27.20
2023-05-21T08:27:31.520Z,30.90
2023-05-21T08:28:31.510Z,28.60
2023-05-21T08:29:31.515Z,28.70
2023-05-21T08:30:31.495Z,28.10
2023-05-21T08:31:31.506Z,29.30
2023-05-21T08:32:31.490Z,29.10
2023-05-21T08:33:31.458Z,27.70
2023-05-21T08:35:47.932Z,28.30
2023-05-21T08:36:47.933Z,27.50
2023-05-21T08:37:47.929Z,29.80
2023-05-21T08:38:47.936Z,29.30
2023-05-21T08:39:47.927Z,27.40
2023-05-21T08:40:48.012Z,32.70
2023-05-21T08:41:47.893Z,28.90
2023-05-21T08:42:47.887Z,29.40
2023-05-21T08:43:50.153Z,27.60
2023-05-21T08:44:47.860Z,28.10
2023-05-21T08:45:49.011Z,30.20
2023-05-21T08:46:48.966Z,26.70
2023-05-21T08:47:49.054Z,28.40
2023-05-21T08:48:48.946Z,27.00
2023-05-21T08:49:48.933Z,28.70
2023-05-21T08:50:48.922Z,29.40
2023-05-21T08:51:48.908Z,26.50
2023-05-21T08:52:48.943Z,27.40
2023-05-21T08:53:48.886Z,27.70
2023-05-21T08:54:48.892Z,31.20
2023-05-21T08:55:50.753Z,27.30
2023-05-21T08:56:48.951Z,28.50
2023-05-21T08:57:48.883Z,26.90
2023-05-21T08:58:48.869Z,26.60
2023-05-21T08:59:48.836Z,27.80
2023-05-21T09:00:48.881Z,27.60
2023-05-21T09:01:48.952Z,27.00
2023-05-21T09:02:48.871Z,25.70
2023-05-21T09:03:48.839Z,26.90
2023-05-21T09:04:48.785Z,28.10
2023-05-21T09:05:48.798Z,27.00
2023-05-21T09:06:48.830Z,27.70
2023-05-21T09:07:50.397Z,26.00
2023-05-21T09:08:48.753Z,25.70
2023-05-21T09:09:48.731Z,25.70
2023-05-21T09:10:48.723Z,27.10
2023-05-21T09:11:48.769Z,27.90
2023-05-21T09:12:48.714Z,26.70
2023-05-21T09:13:48.705Z,25.80
2023-05-21T09:14:48.706Z,29.60
2023-05-21T09:15:48.701Z,27.30
2023-05-21T09:16:48.741Z,27.40
2023-05-21T09:17:48.710Z,26.90
2023-05-21T09:18:48.695Z,24.30
2023-05-21T09:19:48.645Z,26.50
2023-05-21T09:20:48.663Z,30.10
2023-05-21T09:21:48.635Z,27.20
2023-05-21T09:22:48.614Z,26.50
2023-05-21T09:23:48.605Z,26.20
2023-05-21T09:24:48.600Z,27.60
2023-05-21T09:25:48.618Z,26.20
2023-05-21T09:26:48.575Z,27.70
2023-05-21T09:27:48.593Z,26.60
2023-05-21T09:28:48.554Z,25.70
2023-05-21T09:29:48.556Z,26.50
2023-05-21T09:30:48.556Z,25.40
2023-05-21T09:31:48.632Z,25.70
2023-05-21T09:32:48.532Z,27.10
2023-05-21T09:33:48.496Z,26.90
2023-05-21T09:34:48.497Z,26.20
2023-05-21T09:35:48.512Z,27.50
2023-05-21T09:36:48.491Z,26.10
2023-05-21T09:37:48.464Z,27.70
2023-05-21T09:38:48.471Z,26.80
2023-05-21T09:39:48.486Z,26.10
2023-05-21T09:40:48.448Z,26.80
2023-05-21T09:41:48.462Z,25.60
2023-05-21T09:42:48.418Z,27.10
2023-05-21T09:43:48.410Z,27.30
2023-05-21T09:44:48.428Z,24.00
2023-05-21T09:45:48.406Z,26.10
2023-05-21T09:46:48.449Z,25.70
2023-05-21T09:47:48.387Z,24.00
2023-05-21T09:48:48.411Z,24.80
2023-05-21T09:49:48.366Z,28.90
2023-05-21T09:50:48.382Z,23.90
2023-05-21T09:51:48.338Z,25.50
2023-05-21T09:52:48.330Z,27.10
2023-05-21T09:53:48.342Z,24.10
2023-05-21T09:54:48.335Z,25.90
2023-05-21T09:55:48.289Z,25.00
2023-05-21T09:56:48.281Z,25.50
2023-05-21T09:57:50.614Z,24.00
2023-05-21T09:58:48.284Z,26.50
2023-05-21T09:59:48.273Z,29.10
2023-05-21T10:00:48.261Z,27.10
2023-05-21T10:01:48.293Z,24.60
2023-05-21T10:02:48.333Z,27.50
2023-05-21T10:03:50.515Z,24.90
2023-05-21T10:04:49.306Z,25.20
2023-05-21T10:05:48.190Z,27.00
2023-05-21T10:06:48.195Z,24.90
2023-05-21T10:07:48.230Z,23.40
2023-05-21T10:08:48.165Z,24.60
2023-05-21T10:09:48.156Z,25.80
2023-05-21T10:10:48.153Z,28.30
2023-05-21T10:11:49.156Z,24.70
2023-05-21T10:12:48.181Z,25.80
2023-05-21T10:13:48.111Z,23.90
2023-05-21T10:14:48.122Z,25.40
2023-05-21T10:15:50.201Z,24.30
2023-05-21T10:16:48.266Z,24.70
2023-05-21T10:17:48.127Z,24.00
2023-05-21T10:18:49.092Z,23.60
2023-05-21T10:19:48.063Z,23.60
2023-05-21T10:20:48.051Z,21.90
2023-05-21T10:21:48.106Z,22.60
2023-05-21T10:22:48.040Z,21.40
2023-05-21T10:23:48.017Z,22.90
2023-05-21T10:24:48.022Z,24.40
2023-05-21T10:25:48.006Z,23.60
2023-05-21T10:26:48.021Z,22.50
2023-05-21T10:27:47.972Z,22.70
2023-05-21T10:28:47.961Z,23.00
2023-05-21T10:29:47.955Z,22.20
2023-05-21T10:30:47.980Z,25.80
2023-05-21T10:31:47.936Z,23.00
2023-05-21T10:32:48.129Z,24.10
2023-05-21T10:33:47.929Z,21.90
2023-05-21T10:34:47.912Z,22.20
2023-05-21T10:35:47.927Z,23.20
2023-05-21T10:36:47.891Z,21.00
2023-05-21T10:37:47.887Z,21.90
2023-05-21T10:38:47.868Z,22.00
2023-05-21T10:39:47.979Z,24.20
2023-05-21T10:40:47.891Z,21.40
2023-05-21T10:41:47.854Z,21.50
2023-05-21T10:42:47.823Z,23.50
2023-05-21T10:43:47.816Z,21.20
2023-05-21T10:44:47.824Z,20.70
2023-05-21T10:45:47.838Z,22.40
2023-05-21T10:46:47.785Z,22.40
2023-05-21T10:47:47.850Z,21.50
2023-05-21T10:48:47.872Z,22.70
2023-05-21T10:49:47.779Z,24.40
2023-05-21T10:50:47.748Z,23.00
2023-05-21T10:51:47.744Z,20.30
2023-05-21T10:52:47.740Z,21.60
2023-05-21T10:53:47.790Z,22.00
2023-05-21T10:54:47.730Z,21.90
2023-05-21T10:55:47.705Z,20.80
2023-05-21T10:56:47.702Z,23.10
2023-05-21T10:57:47.681Z,21.80
2023-05-21T10:58:47.699Z,22.10
2023-05-21T10:59:47.693Z,23.40
2023-05-21T11:00:47.708Z,26.20
2023-05-21T11:01:47.777Z,20.30
2023-05-21T11:02:47.738Z,20.80
2023-05-21T11:03:47.705Z,21.50
2023-05-21T11:04:47.610Z,22.30
2023-05-21T11:05:47.601Z,21.00
2023-05-21T11:06:47.604Z,22.60
2023-05-21T11:07:47.636Z,22.40
2023-05-21T11:08:47.633Z,20.70
2023-05-21T11:09:47.562Z,21.30
2023-05-21T11:10:47.558Z,23.30
2023-05-21T11:11:47.544Z,19.20
2023-05-21T11:12:47.591Z,21.40
2023-05-21T11:13:47.538Z,25.20
2023-05-21T11:14:47.533Z,20.00
2023-05-21T11:15:47.512Z,17.10
2023-05-21T11:16:47.581Z,18.30
2023-05-21T11:17:47.539Z,19.50
2023-05-21T11:18:47.599Z,20.30
2023-05-21T11:19:47.693Z,17.60
2023-05-21T11:20:47.528Z,19.80
2023-05-21T11:21:47.476Z,21.10
2023-05-21T11:22:47.459Z,21.30
2023-05-21T11:23:47.449Z,21.40
2023-05-21T11:24:48.825Z,22.20
2023-05-21T11:25:47.414Z,19.10
2023-05-21T11:26:47.413Z,18.10
2023-05-21T11:27:47.394Z,20.50
2023-05-21T11:28:47.388Z,18.80
2023-05-21T11:29:47.379Z,18.70
2023-05-21T11:30:47.387Z,20.90
2023-05-21T11:31:47.404Z,18.80
2023-05-21T11:32:47.380Z,20.10
2023-05-21T11:33:47.340Z,19.90
2023-05-21T11:34:47.326Z,17.90
2023-05-21T11:35:47.340Z,21.60
2023-05-21T11:36:47.310Z,20.50
2023-05-21T11:37:47.295Z,20.20
2023-05-21T11:38:47.287Z,21.40
2023-05-21T11:39:47.276Z,21.00
2023-05-21T11:40:47.290Z,18.70
2023-05-21T11:41:47.257Z,20.60
2023-05-21T11:42:47.254Z,21.00
2023-05-21T11:43:47.264Z,20.00
2023-05-21T11:44:47.227Z,20.60
2023-05-21T11:45:47.303Z,22.50
2023-05-21T11:46:47.240Z,20.00
2023-05-21T11:47:47.262Z,18.40
2023-05-21T11:48:47.197Z,19.80
2023-05-21T11:49:47.215Z,20.40
2023-05-21T11:50:47.171Z,20.80
2023-05-21T11:51:47.168Z,19.80
2023-05-21T11:52:47.158Z,19.20
2023-05-21T11:53:47.147Z,22.40
2023-05-21T11:54:47.166Z,20.40
2023-05-21T11:55:47.131Z,21.30
2023-05-21T11:56:47.124Z,20.40
2023-05-21T11:57:47.125Z,22.40
2023-05-21T11:58:47.132Z,21.80
2023-05-21T11:59:47.110Z,23.80
2023-05-21T12:00:47.080Z,18.80
2023-05-21T12:01:47.070Z,19.90
2023-05-21T12:02:47.161Z,20.70
2023-05-21T12:03:47.249Z,19.10
2023-05-21T12:04:47.033Z,20.60
2023-05-21T12:05:47.103Z,21.80
2023-05-21T12:06:47.038Z,19.90
2023-05-21T12:07:47.009Z,19.90
2023-05-21T12:08:47.119Z,21.40
2023-05-21T12:09:47.012Z,18.80
2023-05-21T12:10:47.006Z,20.70
2023-05-21T12:11:46.980Z,19.30
2023-05-21T12:12:55.497Z,20.50
2023-05-21T12:13:49.024Z,17.40
2023-05-21T12:14:46.936Z,18.40
2023-05-21T12:15:46.953Z,20.10
2023-05-21T12:16:47.000Z,18.70
2023-05-21T12:17:46.956Z,17.50
2023-05-21T12:18:46.930Z,17.70
2023-05-21T12:19:46.908Z,18.90
2023-05-21T12:20:46.912Z,19.20
2023-05-21T12:21:46.869Z,17.80
2023-05-21T12:22:46.892Z,20.40
2023-05-21T12:23:46.867Z,18.20
2023-05-21T12:24:46.948Z,22.60
2023-05-21T12:25:46.839Z,20.60
2023-05-21T12:26:46.847Z,20.00
2023-05-21T12:27:46.845Z,20.70
2023-05-21T12:28:46.826Z,18.40
2023-05-21T12:29:46.813Z,17.30
2023-05-21T12:30:46.792Z,18.00
2023-05-21T12:31:46.858Z,16.30
2023-05-21T12:32:46.793Z,18.80
2023-05-21T12:33:46.770Z,18.20
2023-05-21T12:34:46.754Z,18.30
2023-05-21T12:35:46.884Z,18.20
2023-05-21T12:36:46.806Z,18.10
2023-05-21T12:37:46.725Z,19.60
2023-05-21T12:38:46.705Z,19.90
2023-05-21T12:39:46.703Z,17.60
2023-05-21T12:40:46.714Z,17.90
2023-05-21T12:41:46.687Z,19.60
2023-05-21T12:42:46.694Z,18.30
2023-05-21T12:43:46.676Z,18.10
2023-05-21T12:44:46.668Z,20.00
2023-05-21T12:45:46.648Z,17.20
2023-05-21T12:46:46.641Z,17.20
2023-05-21T12:47:46.707Z,21.10
2023-05-21T12:48:46.623Z,18.20
2023-05-21T12:49:46.614Z,17.10
2023-05-21T12:50:46.598Z,20.20
2023-05-21T12:51:46.603Z,20.20
2023-05-21T12:52:46.617Z,18.80
2023-05-21T12:53:46.583Z,19.30